sensor_id;sensor_type;location;lat;lon;timestamp;P1;durP1;ratioP1;P2;durP2;ratioP2
19800;SDS011;10060;48.274;12.214;2024-02-21T00:01:14;9.47;;;3.70;;
19800;SDS011;10060;48.274;12.214;2024-02-21T00:04:17;5.37;;;3.30;;
19800;SDS011;10060;48.274;12.214;2024-02-21T00:07:19;9.27;;;4.43;;
19800;SDS011;10060;48.274;12.214;2024-02-21T00:10:22;5.70;;;3.80;;
19800;SDS011;10060;48.274;12.214;2024-02-21T00:13:25;6.57;;;3.80;;
19800;SDS011;10060;48.274;12.214;2024-02-21T00:16:27;7.77;;;3.93;;
19800;SDS011;10060;48.274;12.214;2024-02-21T00:19:30;5.53;;;3.30;;
19800;SDS011;10060;48.274;12.214;2024-02-21T00:22:32;10.13;;;3.80;;
19800;SDS011;10060;48.274;12.214;2024-02-21T00:25:34;9.30;;;4.13;;
19800;SDS011;10060;48.274;12.214;2024-02-21T00:28:36;5.20;;;3.47;;
19800;SDS011;10060;48.274;12.214;2024-02-21T00:31:38;9.27;;;3.97;;
19800;SDS011;10060;48.274;12.214;2024-02-21T00:34:42;8.90;;;3.60;;
19800;SDS011;10060;48.274;12.214;2024-02-21T00:37:44;7.77;;;3.30;;
19800;SDS011;10060;48.274;12.214;2024-02-21T00:40:46;6.50;;;3.53;;
19800;SDS011;10060;48.274;12.214;2024-02-21T00:43:48;9.57;;;3.60;;
19800;SDS011;10060;48.274;12.214;2024-02-21T00:46:50;5.40;;;3.70;;
19800;SDS011;10060;48.274;12.214;2024-02-21T00:49:54;11.40;;;3.97;;
19800;SDS011;10060;48.274;12.214;2024-02-21T00:52:56;8.73;;;3.63;;
19800;SDS011;10060;48.274;12.214;2024-02-21T00:55:58;9.10;;;3.83;;
19800;SDS011;10060;48.274;12.214;2024-02-21T00:59:00;6.03;;;3.00;;
19800;SDS011;10060;48.274;12.214;2024-02-21T01:02:02;7.50;;;3.83;;
19800;SDS011;10060;48.274;12.214;2024-02-21T01:05:06;6.87;;;2.93;;
19800;SDS011;10060;48.274;12.214;2024-02-21T01:08:08;7.37;;;3.00;;
19800;SDS011;10060;48.274;12.214;2024-02-21T01:11:10;7.03;;;3.30;;
19800;SDS011;10060;48.274;12.214;2024-02-21T01:14:12;5.73;;;2.97;;
19800;SDS011;10060;48.274;12.214;2024-02-21T01:17:14;10.57;;;3.13;;
19800;SDS011;10060;48.274;12.214;2024-02-21T01:20:18;7.33;;;4.07;;
19800;SDS011;10060;48.274;12.214;2024-02-21T01:23:20;5.47;;;3.00;;
19800;SDS011;10060;48.274;12.214;2024-02-21T01:26:22;6.57;;;3.33;;
19800;SDS011;10060;48.274;12.214;2024-02-21T01:29:24;8.00;;;3.30;;
19800;SDS011;10060;48.274;12.214;2024-02-21T01:32:26;10.50;;;3.40;;
19800;SDS011;10060;48.274;12.214;2024-02-21T01:35:30;6.50;;;3.00;;
19800;SDS011;10060;48.274;12.214;2024-02-21T01:38:32;6.27;;;3.00;;
19800;SDS011;10060;48.274;12.214;2024-02-21T01:41:34;7.13;;;3.33;;
19800;SDS011;10060;48.274;12.214;2024-02-21T01:44:36;6.07;;;3.30;;
19800;SDS011;10060;48.274;12.214;2024-02-21T01:47:38;8.10;;;3.20;;
19800;SDS011;10060;48.274;12.214;2024-02-21T01:50:42;5.13;;;3.27;;
19800;SDS011;10060;48.274;12.214;2024-02-21T01:53:45;5.67;;;3.00;;
19800;SDS011;10060;48.274;12.214;2024-02-21T01:56:47;6.40;;;3.20;;
19800;SDS011;10060;48.274;12.214;2024-02-21T01:59:50;7.23;;;2.70;;
19800;SDS011;10060;48.274;12.214;2024-02-21T02:02:52;6.57;;;3.20;;
19800;SDS011;10060;48.274;12.214;2024-02-21T02:05:56;8.23;;;3.20;;
19800;SDS011;10060;48.274;12.214;2024-02-21T02:08:58;5.93;;;3.40;;
19800;SDS011;10060;48.274;12.214;2024-02-21T02:12:00;6.17;;;2.83;;
19800;SDS011;10060;48.274;12.214;2024-02-21T02:15:03;4.20;;;2.70;;
19800;SDS011;10060;48.274;12.214;2024-02-21T02:18:05;5.27;;;3.37;;
19800;SDS011;10060;48.274;12.214;2024-02-21T02:21:10;6.00;;;3.40;;
19800;SDS011;10060;48.274;12.214;2024-02-21T02:24:14;6.37;;;3.40;;
19800;SDS011;10060;48.274;12.214;2024-02-21T02:27:16;7.13;;;3.50;;
19800;SDS011;10060;48.274;12.214;2024-02-21T02:30:18;7.17;;;3.23;;
19800;SDS011;10060;48.274;12.214;2024-02-21T02:33:21;7.43;;;3.20;;
19800;SDS011;10060;48.274;12.214;2024-02-21T02:36:23;4.23;;;3.00;;
19800;SDS011;10060;48.274;12.214;2024-02-21T02:39:27;4.50;;;3.20;;
19800;SDS011;10060;48.274;12.214;2024-02-21T02:42:29;6.43;;;2.90;;
19800;SDS011;10060;48.274;12.214;2024-02-21T02:45:32;4.93;;;2.80;;
19800;SDS011;10060;48.274;12.214;2024-02-21T02:48:34;8.27;;;2.93;;
19800;SDS011;10060;48.274;12.214;2024-02-21T02:51:40;6.87;;;2.77;;
19800;SDS011;10060;48.274;12.214;2024-02-21T02:54:44;5.20;;;2.70;;
19800;SDS011;10060;48.274;12.214;2024-02-21T02:57:51;5.33;;;2.73;;
19800;SDS011;10060;48.274;12.214;2024-02-21T03:00:53;3.73;;;2.93;;
19800;SDS011;10060;48.274;12.214;2024-02-21T03:03:55;5.40;;;2.30;;
19800;SDS011;10060;48.274;12.214;2024-02-21T03:06:58;5.63;;;2.80;;
19800;SDS011;10060;48.274;12.214;2024-02-21T03:10:01;5.50;;;2.73;;
19800;SDS011;10060;48.274;12.214;2024-02-21T03:13:03;5.57;;;2.47;;
19800;SDS011;10060;48.274;12.214;2024-02-21T03:16:05;4.30;;;2.40;;
19800;SDS011;10060;48.274;12.214;2024-02-21T03:19:07;6.87;;;2.47;;
19800;SDS011;10060;48.274;12.214;2024-02-21T03:22:09;2.67;;;2.47;;
19800;SDS011;10060;48.274;12.214;2024-02-21T03:25:13;4.57;;;2.33;;
19800;SDS011;10060;48.274;12.214;2024-02-21T03:28:15;3.93;;;2.30;;
19800;SDS011;10060;48.274;12.214;2024-02-21T03:31:18;5.80;;;2.87;;
19800;SDS011;10060;48.274;12.214;2024-02-21T03:34:20;6.80;;;2.37;;
19800;SDS011;10060;48.274;12.214;2024-02-21T03:37:22;3.17;;;2.10;;
19800;SDS011;10060;48.274;12.214;2024-02-21T03:40:25;6.73;;;2.60;;
19800;SDS011;10060;48.274;12.214;2024-02-21T03:43:27;5.53;;;2.50;;
19800;SDS011;10060;48.274;12.214;2024-02-21T03:46:30;5.23;;;2.93;;
19800;SDS011;10060;48.274;12.214;2024-02-21T03:49:32;4.07;;;2.40;;
19800;SDS011;10060;48.274;12.214;2024-02-21T03:52:34;5.13;;;2.63;;
19800;SDS011;10060;48.274;12.214;2024-02-21T03:55:37;6.50;;;3.43;;
19800;SDS011;10060;48.274;12.214;2024-02-21T03:58:40;5.07;;;2.40;;
19800;SDS011;10060;48.274;12.214;2024-02-21T04:01:42;9.10;;;2.50;;
19800;SDS011;10060;48.274;12.214;2024-02-21T04:04:44;4.33;;;2.30;;
19800;SDS011;10060;48.274;12.214;2024-02-21T04:07:47;4.40;;;2.40;;
19800;SDS011;10060;48.274;12.214;2024-02-21T04:10:52;3.37;;;2.20;;
19800;SDS011;10060;48.274;12.214;2024-02-21T04:13:54;5.20;;;2.37;;
19800;SDS011;10060;48.274;12.214;2024-02-21T04:16:57;5.07;;;2.80;;
19800;SDS011;10060;48.274;12.214;2024-02-21T04:20:01;2.70;;;2.30;;
19800;SDS011;10060;48.274;12.214;2024-02-21T04:23:05;4.03;;;2.40;;
19800;SDS011;10060;48.274;12.214;2024-02-21T04:26:08;3.47;;;2.30;;
19800;SDS011;10060;48.274;12.214;2024-02-21T04:29:10;4.70;;;2.63;;
19800;SDS011;10060;48.274;12.214;2024-02-21T04:32:12;6.93;;;2.40;;
19800;SDS011;10060;48.274;12.214;2024-02-21T04:35:15;4.77;;;2.97;;
19800;SDS011;10060;48.274;12.214;2024-02-21T04:38:17;5.70;;;2.13;;
19800;SDS011;10060;48.274;12.214;2024-02-21T04:41:20;7.90;;;2.17;;
19800;SDS011;10060;48.274;12.214;2024-02-21T04:44:22;3.67;;;2.77;;
19800;SDS011;10060;48.274;12.214;2024-02-21T04:47:24;8.13;;;2.50;;
19800;SDS011;10060;48.274;12.214;2024-02-21T04:50:26;5.90;;;2.40;;
19800;SDS011;10060;48.274;12.214;2024-02-21T04:53:29;5.40;;;3.10;;
19800;SDS011;10060;48.274;12.214;2024-02-21T04:56:32;4.57;;;2.20;;
19800;SDS011;10060;48.274;12.214;2024-02-21T04:59:34;11.97;;;2.93;;
19800;SDS011;10060;48.274;12.214;2024-02-21T05:02:36;4.07;;;2.37;;
19800;SDS011;10060;48.274;12.214;2024-02-21T05:05:38;2.83;;;2.10;;
19800;SDS011;10060;48.274;12.214;2024-02-21T05:08:40;5.80;;;3.50;;
19800;SDS011;10060;48.274;12.214;2024-02-21T05:11:44;3.07;;;2.20;;
19800;SDS011;10060;48.274;12.214;2024-02-21T05:14:46;6.23;;;2.27;;
19800;SDS011;10060;48.274;12.214;2024-02-21T05:17:48;6.23;;;2.40;;
19800;SDS011;10060;48.274;12.214;2024-02-21T05:20:50;5.30;;;2.50;;
19800;SDS011;10060;48.274;12.214;2024-02-21T05:23:53;2.63;;;2.10;;
19800;SDS011;10060;48.274;12.214;2024-02-21T05:26:56;3.17;;;2.40;;
19800;SDS011;10060;48.274;12.214;2024-02-21T05:29:58;2.50;;;2.30;;
19800;SDS011;10060;48.274;12.214;2024-02-21T05:33:03;3.27;;;2.40;;
19800;SDS011;10060;48.274;12.214;2024-02-21T05:36:06;6.20;;;2.63;;
19800;SDS011;10060;48.274;12.214;2024-02-21T05:39:08;2.67;;;2.30;;
19800;SDS011;10060;48.274;12.214;2024-02-21T05:42:11;2.90;;;2.20;;
19800;SDS011;10060;48.274;12.214;2024-02-21T05:45:13;5.10;;;2.50;;
19800;SDS011;10060;48.274;12.214;2024-02-21T05:48:15;6.63;;;2.60;;
19800;SDS011;10060;48.274;12.214;2024-02-21T05:51:17;7.00;;;2.77;;
19800;SDS011;10060;48.274;12.214;2024-02-21T05:54:19;4.37;;;2.40;;
19800;SDS011;10060;48.274;12.214;2024-02-21T05:57:23;4.17;;;2.50;;
19800;SDS011;10060;48.274;12.214;2024-02-21T06:00:25;4.97;;;2.57;;
19800;SDS011;10060;48.274;12.214;2024-02-21T06:03:28;3.07;;;2.10;;
19800;SDS011;10060;48.274;12.214;2024-02-21T06:06:31;5.80;;;2.53;;
19800;SDS011;10060;48.274;12.214;2024-02-21T06:09:33;6.57;;;2.87;;
19800;SDS011;10060;48.274;12.214;2024-02-21T06:12:37;6.40;;;2.83;;
19800;SDS011;10060;48.274;12.214;2024-02-21T06:15:39;6.63;;;2.90;;
19800;SDS011;10060;48.274;12.214;2024-02-21T06:18:41;6.07;;;3.00;;
19800;SDS011;10060;48.274;12.214;2024-02-21T06:21:43;5.33;;;2.60;;
19800;SDS011;10060;48.274;12.214;2024-02-21T06:24:45;4.27;;;2.50;;
19800;SDS011;10060;48.274;12.214;2024-02-21T06:27:48;5.37;;;2.57;;
19800;SDS011;10060;48.274;12.214;2024-02-21T06:30:50;5.47;;;3.20;;
19800;SDS011;10060;48.274;12.214;2024-02-21T06:33:53;6.33;;;2.67;;
19800;SDS011;10060;48.274;12.214;2024-02-21T06:36:55;3.37;;;2.23;;
19800;SDS011;10060;48.274;12.214;2024-02-21T06:39:57;5.17;;;2.73;;
19800;SDS011;10060;48.274;12.214;2024-02-21T06:43:00;3.50;;;2.50;;
19800;SDS011;10060;48.274;12.214;2024-02-21T06:46:03;4.80;;;3.23;;
19800;SDS011;10060;48.274;12.214;2024-02-21T06:49:05;3.40;;;2.83;;
19800;SDS011;10060;48.274;12.214;2024-02-21T06:52:07;4.90;;;2.70;;
19800;SDS011;10060;48.274;12.214;2024-02-21T06:55:09;3.60;;;2.27;;
19800;SDS011;10060;48.274;12.214;2024-02-21T06:58:13;5.00;;;2.70;;
19800;SDS011;10060;48.274;12.214;2024-02-21T07:01:17;2.77;;;2.50;;
19800;SDS011;10060;48.274;12.214;2024-02-21T07:04:19;2.77;;;2.23;;
19800;SDS011;10060;48.274;12.214;2024-02-21T07:07:21;4.20;;;2.57;;
19800;SDS011;10060;48.274;12.214;2024-02-21T07:10:23;2.77;;;2.30;;
19800;SDS011;10060;48.274;12.214;2024-02-21T07:13:26;2.57;;;2.20;;
19800;SDS011;10060;48.274;12.214;2024-02-21T07:16:28;2.53;;;2.00;;
19800;SDS011;10060;48.274;12.214;2024-02-21T07:19:32;3.07;;;2.23;;
19800;SDS011;10060;48.274;12.214;2024-02-21T07:22:35;3.37;;;3.07;;
19800;SDS011;10060;48.274;12.214;2024-02-21T07:25:38;3.87;;;2.10;;
19800;SDS011;10060;48.274;12.214;2024-02-21T07:28:42;4.30;;;2.27;;
19800;SDS011;10060;48.274;12.214;2024-02-21T07:31:44;4.63;;;2.60;;
19800;SDS011;10060;48.274;12.214;2024-02-21T07:34:48;4.07;;;2.57;;
19800;SDS011;10060;48.274;12.214;2024-02-21T07:37:50;3.73;;;2.10;;
19800;SDS011;10060;48.274;12.214;2024-02-21T07:40:52;3.47;;;2.03;;
19800;SDS011;10060;48.274;12.214;2024-02-21T07:43:56;4.83;;;2.30;;
19800;SDS011;10060;48.274;12.214;2024-02-21T07:46:58;3.17;;;2.20;;
19800;SDS011;10060;48.274;12.214;2024-02-21T07:50:00;3.70;;;2.33;;
19800;SDS011;10060;48.274;12.214;2024-02-21T07:53:03;2.10;;;1.90;;
19800;SDS011;10060;48.274;12.214;2024-02-21T07:56:05;2.60;;;2.00;;
19800;SDS011;10060;48.274;12.214;2024-02-21T07:59:09;2.83;;;2.00;;
19800;SDS011;10060;48.274;12.214;2024-02-21T08:02:13;4.20;;;3.03;;
19800;SDS011;10060;48.274;12.214;2024-02-21T08:05:15;2.73;;;2.30;;
19800;SDS011;10060;48.274;12.214;2024-02-21T08:08:17;2.20;;;2.00;;
19800;SDS011;10060;48.274;12.214;2024-02-21T08:11:22;3.93;;;2.10;;
19800;SDS011;10060;48.274;12.214;2024-02-21T08:14:25;2.40;;;2.20;;
19800;SDS011;10060;48.274;12.214;2024-02-21T08:17:27;3.13;;;2.30;;
19800;SDS011;10060;48.274;12.214;2024-02-21T08:20:29;2.97;;;2.30;;
19800;SDS011;10060;48.274;12.214;2024-02-21T08:23:31;2.20;;;1.70;;
19800;SDS011;10060;48.274;12.214;2024-02-21T08:26:34;3.80;;;2.20;;
19800;SDS011;10060;48.274;12.214;2024-02-21T08:29:38;2.47;;;2.17;;
19800;SDS011;10060;48.274;12.214;2024-02-21T08:32:40;2.00;;;1.90;;
19800;SDS011;10060;48.274;12.214;2024-02-21T08:35:42;2.17;;;2.00;;
19800;SDS011;10060;48.274;12.214;2024-02-21T08:38:44;2.80;;;2.10;;
19800;SDS011;10060;48.274;12.214;2024-02-21T08:41:46;3.20;;;2.20;;
19800;SDS011;10060;48.274;12.214;2024-02-21T08:44:50;2.43;;;2.10;;
19800;SDS011;10060;48.274;12.214;2024-02-21T08:47:52;3.07;;;2.23;;
19800;SDS011;10060;48.274;12.214;2024-02-21T08:50:54;2.60;;;2.27;;
19800;SDS011;10060;48.274;12.214;2024-02-21T08:53:56;2.90;;;2.30;;
19800;SDS011;10060;48.274;12.214;2024-02-21T08:56:58;5.80;;;2.27;;
19800;SDS011;10060;48.274;12.214;2024-02-21T09:00:02;2.60;;;1.93;;
19800;SDS011;10060;48.274;12.214;2024-02-21T09:03:09;4.23;;;2.37;;
19800;SDS011;10060;48.274;12.214;2024-02-21T09:06:11;3.80;;;2.10;;
19800;SDS011;10060;48.274;12.214;2024-02-21T09:09:14;3.57;;;2.20;;
19800;SDS011;10060;48.274;12.214;2024-02-21T09:12:16;3.63;;;2.20;;
19800;SDS011;10060;48.274;12.214;2024-02-21T09:15:19;2.90;;;2.40;;
19800;SDS011;10060;48.274;12.214;2024-02-21T09:18:21;2.13;;;2.03;;
19800;SDS011;10060;48.274;12.214;2024-02-21T09:21:23;2.00;;;1.80;;
19800;SDS011;10060;48.274;12.214;2024-02-21T09:24:25;2.63;;;1.90;;
19800;SDS011;10060;48.274;12.214;2024-02-21T09:27:28;2.73;;;2.10;;
19800;SDS011;10060;48.274;12.214;2024-02-21T09:30:31;6.30;;;2.03;;
19800;SDS011;10060;48.274;12.214;2024-02-21T09:33:33;2.93;;;2.00;;
19800;SDS011;10060;48.274;12.214;2024-02-21T09:36:37;4.23;;;2.00;;
19800;SDS011;10060;48.274;12.214;2024-02-21T09:39:40;2.00;;;1.90;;
19800;SDS011;10060;48.274;12.214;2024-02-21T09:42:42;3.07;;;1.87;;
19800;SDS011;10060;48.274;12.214;2024-02-21T09:45:46;3.43;;;1.90;;
19800;SDS011;10060;48.274;12.214;2024-02-21T09:48:53;3.10;;;1.73;;
19800;SDS011;10060;48.274;12.214;2024-02-21T09:52:00;2.93;;;1.97;;
19800;SDS011;10060;48.274;12.214;2024-02-21T09:55:03;4.23;;;1.90;;
19800;SDS011;10060;48.274;12.214;2024-02-21T09:58:06;3.67;;;2.07;;
19800;SDS011;10060;48.274;12.214;2024-02-21T10:01:10;3.83;;;2.33;;
19800;SDS011;10060;48.274;12.214;2024-02-21T10:04:12;3.60;;;2.27;;
19800;SDS011;10060;48.274;12.214;2024-02-21T10:07:14;2.77;;;1.87;;
19800;SDS011;10060;48.274;12.214;2024-02-21T10:10:16;3.70;;;2.10;;
19800;SDS011;10060;48.274;12.214;2024-02-21T10:13:25;3.50;;;2.50;;
19800;SDS011;10060;48.274;12.214;2024-02-21T10:16:29;5.97;;;2.57;;
19800;SDS011;10060;48.274;12.214;2024-02-21T10:19:31;3.60;;;2.40;;
19800;SDS011;10060;48.274;12.214;2024-02-21T10:22:33;3.20;;;2.17;;
19800;SDS011;10060;48.274;12.214;2024-02-21T10:25:35;5.93;;;2.47;;
19800;SDS011;10060;48.274;12.214;2024-02-21T10:28:41;2.80;;;2.20;;
19800;SDS011;10060;48.274;12.214;2024-02-21T10:31:46;2.03;;;1.93;;
19800;SDS011;10060;48.274;12.214;2024-02-21T10:34:48;5.13;;;2.33;;
19800;SDS011;10060;48.274;12.214;2024-02-21T10:37:51;4.90;;;2.37;;
19800;SDS011;10060;48.274;12.214;2024-02-21T10:40:55;4.00;;;2.20;;
19800;SDS011;10060;48.274;12.214;2024-02-21T10:43:58;2.80;;;1.93;;
19800;SDS011;10060;48.274;12.214;2024-02-21T10:47:07;4.20;;;1.93;;
19800;SDS011;10060;48.274;12.214;2024-02-21T10:50:09;3.20;;;1.90;;
19800;SDS011;10060;48.274;12.214;2024-02-21T10:53:17;1.97;;;1.63;;
19800;SDS011;10060;48.274;12.214;2024-02-21T10:56:26;2.10;;;1.43;;
19800;SDS011;10060;48.274;12.214;2024-02-21T10:59:30;3.60;;;1.53;;
19800;SDS011;10060;48.274;12.214;2024-02-21T11:02:33;4.13;;;1.30;;
19800;SDS011;10060;48.274;12.214;2024-02-21T11:05:36;3.37;;;1.67;;
19800;SDS011;10060;48.274;12.214;2024-02-21T11:08:38;3.93;;;2.23;;
19800;SDS011;10060;48.274;12.214;2024-02-21T11:11:40;4.97;;;1.70;;
19800;SDS011;10060;48.274;12.214;2024-02-21T11:14:43;2.83;;;1.60;;
19800;SDS011;10060;48.274;12.214;2024-02-21T11:17:55;2.17;;;1.43;;
19800;SDS011;10060;48.274;12.214;2024-02-21T11:20:57;4.10;;;1.33;;
19800;SDS011;10060;48.274;12.214;2024-02-21T11:23:59;4.20;;;1.50;;
19800;SDS011;10060;48.274;12.214;2024-02-21T11:27:08;3.27;;;1.57;;
19800;SDS011;10060;48.274;12.214;2024-02-21T11:30:11;2.50;;;1.60;;
19800;SDS011;10060;48.274;12.214;2024-02-21T11:33:15;2.07;;;1.73;;
19800;SDS011;10060;48.274;12.214;2024-02-21T11:36:23;4.00;;;1.80;;
19800;SDS011;10060;48.274;12.214;2024-02-21T11:39:26;2.07;;;1.30;;
19800;SDS011;10060;48.274;12.214;2024-02-21T11:42:28;3.00;;;1.60;;
19800;SDS011;10060;48.274;12.214;2024-02-21T11:45:30;2.50;;;1.53;;
19800;SDS011;10060;48.274;12.214;2024-02-21T11:48:34;3.17;;;1.30;;
19800;SDS011;10060;48.274;12.214;2024-02-21T11:51:36;2.73;;;1.67;;
19800;SDS011;10060;48.274;12.214;2024-02-21T11:54:38;3.63;;;1.97;;
19800;SDS011;10060;48.274;12.214;2024-02-21T11:57:40;3.13;;;1.60;;
19800;SDS011;10060;48.274;12.214;2024-02-21T12:00:45;3.53;;;1.70;;
19800;SDS011;10060;48.274;12.214;2024-02-21T12:03:49;4.67;;;1.87;;
19800;SDS011;10060;48.274;12.214;2024-02-21T12:06:51;3.60;;;1.77;;
19800;SDS011;10060;48.274;12.214;2024-02-21T12:09:54;3.23;;;1.70;;
19800;SDS011;10060;48.274;12.214;2024-02-21T12:13:04;1.40;;;1.30;;
19800;SDS011;10060;48.274;12.214;2024-02-21T12:16:07;2.67;;;1.57;;
19800;SDS011;10060;48.274;12.214;2024-02-21T12:19:10;1.80;;;1.50;;
19800;SDS011;10060;48.274;12.214;2024-02-21T12:22:15;1.83;;;1.40;;
19800;SDS011;10060;48.274;12.214;2024-02-21T12:25:18;2.97;;;1.70;;
19800;SDS011;10060;48.274;12.214;2024-02-21T12:28:22;1.70;;;1.50;;
19800;SDS011;10060;48.274;12.214;2024-02-21T12:31:24;4.83;;;1.60;;
19800;SDS011;10060;48.274;12.214;2024-02-21T12:34:29;4.80;;;1.80;;
19800;SDS011;10060;48.274;12.214;2024-02-21T12:37:32;2.77;;;1.43;;
19800;SDS011;10060;48.274;12.214;2024-02-21T12:40:34;3.37;;;2.00;;
19800;SDS011;10060;48.274;12.214;2024-02-21T12:43:36;4.27;;;1.80;;
19800;SDS011;10060;48.274;12.214;2024-02-21T12:46:38;2.13;;;1.60;;
19800;SDS011;10060;48.274;12.214;2024-02-21T12:49:42;3.10;;;1.60;;
19800;SDS011;10060;48.274;12.214;2024-02-21T12:52:45;2.67;;;1.77;;
19800;SDS011;10060;48.274;12.214;2024-02-21T12:55:47;7.63;;;1.90;;
19800;SDS011;10060;48.274;12.214;2024-02-21T12:58:49;4.30;;;1.73;;
19800;SDS011;10060;48.274;12.214;2024-02-21T13:01:52;2.20;;;1.60;;
19800;SDS011;10060;48.274;12.214;2024-02-21T13:04:55;2.60;;;1.57;;
19800;SDS011;10060;48.274;12.214;2024-02-21T13:07:57;1.63;;;1.53;;
19800;SDS011;10060;48.274;12.214;2024-02-21T13:10:59;1.90;;;1.50;;
19800;SDS011;10060;48.274;12.214;2024-02-21T13:14:01;2.87;;;1.63;;
19800;SDS011;10060;48.274;12.214;2024-02-21T13:17:03;2.50;;;1.63;;
19800;SDS011;10060;48.274;12.214;2024-02-21T13:20:08;1.50;;;1.40;;
19800;SDS011;10060;48.274;12.214;2024-02-21T13:23:10;1.90;;;1.50;;
19800;SDS011;10060;48.274;12.214;2024-02-21T13:26:12;1.70;;;1.30;;
19800;SDS011;10060;48.274;12.214;2024-02-21T13:29:15;2.47;;;1.40;;
19800;SDS011;10060;48.274;12.214;2024-02-21T13:32:17;1.77;;;1.47;;
19800;SDS011;10060;48.274;12.214;2024-02-21T13:35:21;1.20;;;1.10;;
19800;SDS011;10060;48.274;12.214;2024-02-21T13:38:23;1.40;;;1.30;;
19800;SDS011;10060;48.274;12.214;2024-02-21T13:41:25;1.33;;;1.23;;
19800;SDS011;10060;48.274;12.214;2024-02-21T13:44:27;1.40;;;1.17;;
19800;SDS011;10060;48.274;12.214;2024-02-21T13:47:29;1.40;;;1.20;;
19800;SDS011;10060;48.274;12.214;2024-02-21T13:50:33;1.73;;;1.27;;
19800;SDS011;10060;48.274;12.214;2024-02-21T13:53:42;1.40;;;1.30;;
19800;SDS011;10060;48.274;12.214;2024-02-21T13:56:44;1.33;;;1.23;;
19800;SDS011;10060;48.274;12.214;2024-02-21T13:59:47;1.47;;;1.10;;
19800;SDS011;10060;48.274;12.214;2024-02-21T14:02:49;2.27;;;1.10;;
19800;SDS011;10060;48.274;12.214;2024-02-21T14:05:52;3.40;;;1.30;;
19800;SDS011;10060;48.274;12.214;2024-02-21T14:08:54;4.30;;;1.30;;
19800;SDS011;10060;48.274;12.214;2024-02-21T14:11:56;2.03;;;1.43;;
19800;SDS011;10060;48.274;12.214;2024-02-21T14:14:59;1.60;;;1.20;;
19800;SDS011;10060;48.274;12.214;2024-02-21T14:18:01;1.30;;;1.20;;
19800;SDS011;10060;48.274;12.214;2024-02-21T14:21:07;1.30;;;1.20;;
19800;SDS011;10060;48.274;12.214;2024-02-21T14:24:10;1.37;;;1.10;;
19800;SDS011;10060;48.274;12.214;2024-02-21T14:27:13;1.77;;;1.43;;
19800;SDS011;10060;48.274;12.214;2024-02-21T14:30:15;1.87;;;1.07;;
19800;SDS011;10060;48.274;12.214;2024-02-21T14:33:17;1.33;;;1.20;;
19800;SDS011;10060;48.274;12.214;2024-02-21T14:36:20;1.47;;;1.20;;
19800;SDS011;10060;48.274;12.214;2024-02-21T14:39:24;1.10;;;1.00;;
19800;SDS011;10060;48.274;12.214;2024-02-21T14:42:26;2.57;;;1.20;;
19800;SDS011;10060;48.274;12.214;2024-02-21T14:45:28;1.10;;;1.10;;
19800;SDS011;10060;48.274;12.214;2024-02-21T14:48:30;1.20;;;1.10;;
19800;SDS011;10060;48.274;12.214;2024-02-21T14:51:34;2.93;;;1.60;;
19800;SDS011;10060;48.274;12.214;2024-02-21T14:54:37;1.53;;;1.27;;
19800;SDS011;10060;48.274;12.214;2024-02-21T14:57:41;2.57;;;1.10;;
19800;SDS011;10060;48.274;12.214;2024-02-21T15:00:44;1.20;;;1.10;;
19800;SDS011;10060;48.274;12.214;2024-02-21T15:03:46;0.90;;;0.90;;
19800;SDS011;10060;48.274;12.214;2024-02-21T15:06:50;1.20;;;1.10;;
19800;SDS011;10060;48.274;12.214;2024-02-21T15:09:52;1.33;;;1.10;;
19800;SDS011;10060;48.274;12.214;2024-02-21T15:12:54;1.10;;;1.00;;
19800;SDS011;10060;48.274;12.214;2024-02-21T15:15:56;2.23;;;1.10;;
19800;SDS011;10060;48.274;12.214;2024-02-21T15:18:58;0.97;;;0.97;;
19800;SDS011;10060;48.274;12.214;2024-02-21T15:22:02;1.63;;;1.20;;
19800;SDS011;10060;48.274;12.214;2024-02-21T15:25:04;1.97;;;1.40;;
19800;SDS011;10060;48.274;12.214;2024-02-21T15:28:06;1.87;;;1.30;;
19800;SDS011;10060;48.274;12.214;2024-02-21T15:31:08;1.27;;;1.17;;
19800;SDS011;10060;48.274;12.214;2024-02-21T15:34:10;2.10;;;1.20;;
19800;SDS011;10060;48.274;12.214;2024-02-21T15:37:14;1.87;;;1.50;;
19800;SDS011;10060;48.274;12.214;2024-02-21T15:40:16;2.50;;;1.20;;
19800;SDS011;10060;48.274;12.214;2024-02-21T15:43:18;2.00;;;1.20;;
19800;SDS011;10060;48.274;12.214;2024-02-21T15:46:21;1.40;;;1.30;;
19800;SDS011;10060;48.274;12.214;2024-02-21T15:49:23;1.27;;;1.17;;
19800;SDS011;10060;48.274;12.214;2024-02-21T15:52:27;1.57;;;1.17;;
19800;SDS011;10060;48.274;12.214;2024-02-21T15:55:29;2.97;;;1.13;;
19800;SDS011;10060;48.274;12.214;2024-02-21T15:58:31;2.23;;;1.23;;
19800;SDS011;10060;48.274;12.214;2024-02-21T16:01:34;3.23;;;1.40;;
19800;SDS011;10060;48.274;12.214;2024-02-21T16:04:36;1.80;;;1.40;;
19800;SDS011;10060;48.274;12.214;2024-02-21T16:07:40;2.23;;;1.43;;
19800;SDS011;10060;48.274;12.214;2024-02-21T16:10:42;2.00;;;1.80;;
19800;SDS011;10060;48.274;12.214;2024-02-21T16:13:44;2.87;;;1.47;;
19800;SDS011;10060;48.274;12.214;2024-02-21T16:16:48;1.43;;;1.33;;
19800;SDS011;10060;48.274;12.214;2024-02-21T16:19:50;2.00;;;1.57;;
19800;SDS011;10060;48.274;12.214;2024-02-21T16:22:53;2.43;;;1.70;;
19800;SDS011;10060;48.274;12.214;2024-02-21T16:25:57;2.37;;;1.90;;
19800;SDS011;10060;48.274;12.214;2024-02-21T16:29:01;1.90;;;1.80;;
19800;SDS011;10060;48.274;12.214;2024-02-21T16:32:03;3.60;;;2.07;;
19800;SDS011;10060;48.274;12.214;2024-02-21T16:35:06;2.40;;;1.87;;
19800;SDS011;10060;48.274;12.214;2024-02-21T16:38:09;6.87;;;2.17;;
19800;SDS011;10060;48.274;12.214;2024-02-21T16:41:11;3.83;;;1.90;;
19800;SDS011;10060;48.274;12.214;2024-02-21T16:44:14;2.37;;;2.00;;
19800;SDS011;10060;48.274;12.214;2024-02-21T16:47:16;3.33;;;2.20;;
19800;SDS011;10060;48.274;12.214;2024-02-21T16:50:19;4.23;;;2.40;;
19800;SDS011;10060;48.274;12.214;2024-02-21T16:53:22;4.40;;;2.13;;
19800;SDS011;10060;48.274;12.214;2024-02-21T16:56:24;3.17;;;2.40;;
19800;SDS011;10060;48.274;12.214;2024-02-21T16:59:27;2.63;;;1.80;;
19800;SDS011;10060;48.274;12.214;2024-02-21T17:02:29;1.60;;;1.50;;
19800;SDS011;10060;48.274;12.214;2024-02-21T17:05:31;2.53;;;1.80;;
19800;SDS011;10060;48.274;12.214;2024-02-21T17:08:35;3.40;;;1.67;;
19800;SDS011;10060;48.274;12.214;2024-02-21T17:11:37;7.20;;;2.60;;
19800;SDS011;10060;48.274;12.214;2024-02-21T17:14:39;7.97;;;2.53;;
19800;SDS011;10060;48.274;12.214;2024-02-21T17:17:41;6.57;;;2.93;;
19800;SDS011;10060;48.274;12.214;2024-02-21T17:20:43;2.97;;;2.23;;
19800;SDS011;10060;48.274;12.214;2024-02-21T17:23:49;3.63;;;2.37;;
19800;SDS011;10060;48.274;12.214;2024-02-21T17:26:51;3.20;;;2.60;;
19800;SDS011;10060;48.274;12.214;2024-02-21T17:29:53;3.10;;;2.80;;
19800;SDS011;10060;48.274;12.214;2024-02-21T17:32:55;5.43;;;3.10;;
19800;SDS011;10060;48.274;12.214;2024-02-21T17:35:57;4.03;;;2.53;;
19800;SDS011;10060;48.274;12.214;2024-02-21T17:39:01;1.80;;;1.70;;
19800;SDS011;10060;48.274;12.214;2024-02-21T17:42:04;3.97;;;1.93;;
19800;SDS011;10060;48.274;12.214;2024-02-21T17:45:07;2.20;;;2.00;;
19800;SDS011;10060;48.274;12.214;2024-02-21T17:48:09;4.30;;;2.00;;
19800;SDS011;10060;48.274;12.214;2024-02-21T17:51:11;7.73;;;2.47;;
19800;SDS011;10060;48.274;12.214;2024-02-21T17:54:15;4.67;;;2.13;;
19800;SDS011;10060;48.274;12.214;2024-02-21T17:57:17;1.90;;;1.73;;
19800;SDS011;10060;48.274;12.214;2024-02-21T18:00:19;2.93;;;2.10;;
19800;SDS011;10060;48.274;12.214;2024-02-21T18:03:21;6.80;;;2.60;;